createdAt,value
2023-03-19T00:01:07.245Z,71.27
2023-03-19T00:03:36.630Z,71.20
2023-03-19T00:06:05.463Z,71.21
2023-03-19T00:08:34.074Z,71.50
2023-03-19T00:11:08.297Z,71.53
2023-03-19T00:13:37.223Z,71.70
2023-03-19T00:16:08.228Z,71.61
2023-03-19T00:18:37.287Z,71.82
2023-03-19T00:21:05.954Z,71.97
2023-03-19T00:23:34.555Z,72.22
2023-03-19T00:26:03.305Z,72.21
2023-03-19T00:28:31.925Z,72.32
2023-03-19T00:31:08.980Z,72.36
2023-03-19T00:33:37.665Z,72.57
2023-03-19T00:36:07.807Z,72.58
2023-03-19T00:38:36.521Z,72.49
2023-03-19T00:41:05.742Z,72.49
2023-03-19T00:43:34.603Z,72.39
2023-03-19T00:46:03.325Z,72.45
2023-03-19T00:48:33.198Z,72.31
2023-03-19T00:51:04.926Z,72.09
2023-03-19T00:53:34.067Z,72.36
2023-03-19T00:56:02.553Z,72.25
2023-03-19T00:58:31.683Z,72.19
2023-03-19T01:01:00.972Z,72.36
2023-03-19T01:03:30.452Z,72.27
2023-03-19T01:06:01.078Z,72.41
2023-03-19T01:08:29.702Z,72.43
2023-03-19T01:11:05.485Z,72.58
2023-03-19T01:13:33.602Z,72.99
2023-03-19T01:16:01.803Z,72.79
2023-03-19T01:18:30.392Z,72.96
2023-03-19T01:21:00.557Z,73.13
2023-03-19T01:23:30.689Z,73.04
2023-03-19T01:25:58.966Z,73.19
2023-03-19T01:28:29.115Z,73.39
2023-03-19T01:31:01.845Z,73.35
2023-03-19T01:33:48.176Z,73.33
2023-03-19T01:36:29.493Z,73.52
2023-03-19T01:39:02.709Z,73.64
2023-03-19T01:41:31.475Z,73.58
2023-03-19T01:44:31.562Z,73.53
2023-03-19T01:47:31.428Z,74.05
2023-03-19T01:50:27.145Z,73.75
2023-03-19T01:53:16.455Z,73.84
2023-03-19T01:56:08.202Z,73.82
2023-03-19T01:58:47.548Z,73.56
2023-03-19T02:01:37.759Z,73.59
2023-03-19T02:04:07.283Z,73.43
2023-03-19T02:06:37.747Z,73.70
2023-03-19T02:09:07.562Z,73.77
2023-03-19T02:11:36.238Z,73.67
2023-03-19T02:14:04.927Z,73.68
2023-03-19T02:16:33.901Z,73.67
2023-03-19T02:19:02.756Z,73.78
2023-03-19T02:21:32.074Z,73.90
2023-03-19T02:24:09.846Z,73.98
2023-03-19T02:26:59.741Z,74.15
2023-03-19T02:29:28.761Z,73.98
2023-03-19T02:32:00.470Z,74.02
2023-03-19T02:34:38.931Z,74.25
2023-03-19T02:37:15.210Z,74.33
2023-03-19T02:39:58.685Z,74.36
2023-03-19T02:42:30.577Z,74.36
2023-03-19T02:44:59.465Z,74.44
2023-03-19T02:47:29.007Z,74.46
2023-03-19T02:49:57.575Z,74.43
2023-03-19T02:52:27.655Z,74.62
2023-03-19T02:54:56.559Z,74.34
2023-03-19T02:57:27.595Z,74.57
2023-03-19T02:59:56.199Z,74.92
2023-03-19T03:02:24.451Z,74.90
2023-03-19T03:04:53.184Z,75.04
2023-03-19T03:07:22.097Z,75.10
2023-03-19T03:09:50.970Z,75.11
2023-03-19T03:12:19.526Z,75.04
2023-03-19T03:14:49.385Z,75.04
2023-03-19T03:17:18.245Z,75.01
2023-03-19T03:19:46.447Z,74.99
2023-03-19T03:22:14.929Z,74.83
2023-03-19T03:24:43.470Z,75.01
2023-03-19T03:27:12.161Z,74.75
2023-03-19T03:29:41.375Z,74.82
2023-03-19T03:32:11.513Z,74.60
2023-03-19T03:34:40.440Z,74.77
2023-03-19T03:37:09.277Z,74.72
2023-03-19T03:39:37.858Z,74.80
2023-03-19T03:42:06.907Z,74.80
2023-03-19T03:44:36.608Z,74.84
2023-03-19T03:47:05.290Z,74.73
2023-03-19T03:49:34.932Z,74.95
2023-03-19T03:52:03.831Z,74.91
2023-03-19T03:54:32.626Z,75.01
2023-03-19T03:57:03.342Z,74.96
2023-03-19T03:59:32.541Z,75.37
2023-03-19T04:02:01.091Z,74.95
2023-03-19T04:04:29.746Z,75.21
2023-03-19T04:06:59.295Z,75.16
2023-03-19T04:09:36.022Z,75.19
2023-03-19T04:12:04.796Z,75.24
2023-03-19T04:14:33.302Z,75.49
2023-03-19T04:17:01.868Z,75.41
2023-03-19T04:19:31.651Z,75.71
2023-03-19T04:22:03.414Z,75.48
2023-03-19T04:24:33.629Z,75.62
2023-03-19T04:27:02.375Z,75.77
2023-03-19T04:29:31.414Z,75.87
2023-03-19T04:32:00.896Z,75.94
2023-03-19T04:34:29.854Z,75.94
2023-03-19T04:36:59.798Z,75.90
2023-03-19T04:39:28.996Z,75.88
2023-03-19T04:41:57.669Z,76.02
2023-03-19T04:44:31.023Z,76.11
2023-03-19T04:47:02.238Z,76.18
2023-03-19T04:49:36.411Z,76.15
2023-03-19T04:52:07.059Z,76.26
2023-03-19T04:54:35.758Z,76.68
2023-03-19T04:57:05.107Z,76.71
2023-03-19T04:59:38.087Z,76.83
2023-03-19T05:02:07.246Z,76.84
2023-03-19T05:04:37.750Z,76.94
2023-03-19T05:07:11.782Z,77.28
2023-03-19T05:09:40.456Z,77.38
2023-03-19T05:12:09.294Z,77.40
2023-03-19T05:14:43.623Z,77.58
2023-03-19T05:17:21.647Z,77.66
2023-03-19T05:20:12.953Z,77.62
2023-03-19T05:22:48.730Z,77.79
2023-03-19T05:25:19.474Z,77.71
2023-03-19T05:27:48.530Z,77.87
2023-03-19T05:30:20.814Z,78.05
2023-03-19T05:33:12.657Z,77.89
2023-03-19T05:35:43.661Z,78.09
2023-03-19T05:38:22.082Z,78.17
2023-03-19T05:40:57.398Z,78.20
2023-03-19T05:43:33.299Z,78.19
2023-03-19T05:46:05.598Z,78.51
2023-03-19T05:48:35.436Z,78.56
2023-03-19T05:51:06.209Z,78.46
2023-03-19T05:53:40.338Z,78.62
2023-03-19T05:56:44.272Z,78.74
2023-03-19T05:59:24.917Z,78.88
2023-03-19T06:02:06.068Z,79.04
2023-03-19T06:04:34.698Z,79.13
2023-03-19T06:07:04.179Z,79.25
2023-03-19T06:09:34.737Z,79.27
2023-03-19T06:12:03.988Z,79.33
2023-03-19T06:14:51.931Z,79.21
2023-03-19T06:17:39.259Z,79.35
2023-03-19T06:20:13.000Z,79.29
2023-03-19T06:22:42.705Z,79.33
2023-03-19T06:25:12.934Z,79.38
2023-03-19T06:27:43.626Z,79.32
2023-03-19T06:30:24.119Z,79.20
2023-03-19T06:32:53.048Z,79.08
2023-03-19T06:35:22.742Z,79.17
2023-03-19T06:37:52.365Z,79.27
2023-03-19T06:40:22.001Z,79.24
2023-03-19T06:42:50.825Z,79.16
2023-03-19T06:45:20.367Z,79.04
2023-03-19T06:47:48.918Z,79.16
2023-03-19T06:50:18.066Z,78.96
2023-03-19T06:52:46.965Z,79.15
2023-03-19T06:55:15.577Z,79.04
2023-03-19T06:57:48.767Z,79.03
2023-03-19T07:00:18.622Z,79.05
2023-03-19T07:02:47.028Z,79.07
2023-03-19T07:05:15.518Z,79.26
2023-03-19T07:07:44.086Z,79.13
2023-03-19T07:10:12.814Z,79.41
2023-03-19T07:12:41.341Z,79.15
2023-03-19T07:15:12.410Z,79.43
2023-03-19T07:17:41.152Z,79.58
2023-03-19T07:20:11.094Z,79.27
2023-03-19T07:22:39.643Z,79.35
2023-03-19T07:25:09.128Z,79.52
2023-03-19T07:27:37.672Z,79.54
2023-03-19T07:30:06.742Z,79.70
2023-03-19T07:32:36.966Z,79.78
2023-03-19T07:35:06.189Z,79.61
2023-03-19T07:37:34.858Z,79.88
2023-03-19T07:40:03.678Z,79.83
2023-03-19T07:42:32.036Z,80.06
2023-03-19T07:45:02.261Z,80.08
2023-03-19T07:47:30.807Z,80.09
2023-03-19T07:50:00.816Z,79.73
2023-03-19T07:52:29.301Z,80.03
2023-03-19T07:54:57.481Z,80.24
2023-03-19T07:57:27.233Z,80.01
2023-03-19T07:59:55.494Z,80.14
2023-03-19T08:02:24.092Z,80.13
2023-03-19T08:04:52.608Z,80.01
2023-03-19T08:07:22.986Z,79.96
2023-03-19T08:09:51.586Z,80.04
2023-03-19T08:12:20.177Z,79.88
2023-03-19T08:14:48.783Z,79.78
2023-03-19T08:17:17.288Z,79.68
2023-03-19T08:19:46.760Z,79.60
2023-03-19T08:22:15.624Z,79.49
2023-03-19T08:24:45.226Z,79.16
2023-03-19T08:27:13.701Z,78.75
2023-03-19T08:29:42.300Z,78.62
2023-03-19T08:32:11.302Z,78.37
2023-03-19T08:34:39.527Z,78.10
2023-03-19T08:37:07.781Z,77.71
2023-03-19T08:39:36.361Z,77.47
2023-03-19T08:42:06.488Z,77.00
2023-03-19T08:44:35.023Z,76.81
2023-03-19T08:47:03.645Z,76.49
2023-03-19T08:49:32.261Z,76.47
2023-03-19T08:52:00.799Z,76.11
2023-03-19T08:54:29.377Z,75.82
2023-03-19T08:56:57.868Z,74.75
2023-03-19T08:59:27.495Z,74.42
2023-03-19T09:01:56.161Z,73.51
2023-03-19T09:04:25.018Z,72.97
2023-03-19T09:06:53.534Z,71.78
2023-03-19T09:09:24.831Z,70.46
2023-03-19T09:11:53.503Z,69.97
2023-03-19T09:14:25.319Z,69.21
2023-03-19T09:16:55.759Z,69.35
2023-03-19T09:19:24.649Z,69.06
2023-03-19T09:21:53.168Z,67.78
2023-03-19T09:24:21.410Z,67.23
2023-03-19T09:26:50.063Z,65.66
2023-03-19T09:29:18.865Z,65.38
2023-03-19T09:31:47.808Z,63.89
2023-03-19T09:34:18.634Z,64.24
2023-03-19T09:36:47.410Z,63.37
2023-03-19T09:39:15.872Z,61.37
2023-03-19T09:42:03.841Z,61.74
2023-03-19T09:44:36.040Z,61.06
2023-03-19T09:47:25.770Z,61.30
2023-03-19T09:49:59.253Z,60.95
2023-03-19T09:52:41.642Z,60.75
2023-03-19T09:55:21.176Z,60.39
2023-03-19T09:57:50.457Z,59.78
2023-03-19T10:00:24.855Z,59.91
2023-03-19T10:03:01.943Z,57.89
2023-03-19T10:05:51.816Z,58.33
2023-03-19T10:08:56.716Z,57.10
2023-03-19T10:11:40.803Z,57.18
2023-03-19T10:14:45.203Z,56.91
2023-03-19T10:17:19.135Z,56.45
2023-03-19T10:19:54.372Z,55.39
2023-03-19T10:22:30.761Z,56.32
2023-03-19T10:25:00.404Z,55.95
2023-03-19T10:27:31.032Z,55.10
2023-03-19T10:29:59.563Z,54.44
2023-03-19T10:32:39.692Z,54.85
2023-03-19T10:35:19.251Z,54.07
2023-03-19T10:37:50.094Z,52.77
2023-03-19T10:40:25.685Z,52.36
2023-03-19T10:43:08.298Z,52.50
2023-03-19T10:45:39.323Z,51.70
2023-03-19T10:48:13.007Z,51.43
2023-03-19T10:50:50.696Z,50.01
2023-03-19T10:53:34.285Z,48.44
2023-03-19T10:56:06.190Z,48.85
2023-03-19T10:58:36.883Z,48.87
2023-03-19T11:01:09.506Z,48.31
2023-03-19T11:03:41.320Z,48.25
2023-03-19T11:06:20.381Z,47.63
2023-03-19T11:08:57.622Z,47.77
2023-03-19T11:11:33.186Z,47.55
2023-03-19T11:14:09.951Z,46.71
2023-03-19T11:16:57.258Z,46.94
2023-03-19T11:19:29.537Z,46.15
2023-03-19T11:22:08.556Z,46.30
2023-03-19T11:24:41.791Z,46.67
2023-03-19T11:27:12.122Z,47.05
2023-03-19T11:29:44.245Z,47.18
2023-03-19T11:32:34.590Z,47.26
2023-03-19T11:35:07.433Z,46.53
2023-03-19T11:37:54.390Z,46.38
2023-03-19T11:40:37.418Z,46.21
2023-03-19T11:43:38.239Z,46.22
2023-03-19T11:46:30.861Z,46.42
2023-03-19T11:49:46.513Z,46.56
2023-03-19T11:52:23.697Z,46.41
2023-03-19T11:55:18.629Z,46.86
2023-03-19T11:58:23.262Z,46.89
2023-03-19T12:00:52.866Z,46.79
2023-03-19T12:03:58.206Z,47.69
2023-03-19T12:06:43.630Z,47.70
2023-03-19T12:09:23.232Z,47.75
2023-03-19T12:11:57.137Z,48.12
2023-03-19T12:14:42.295Z,48.23
2023-03-19T12:17:35.718Z,48.92
2023-03-19T12:20:21.338Z,49.14
2023-03-19T12:23:04.815Z,49.31
2023-03-19T12:25:54.188Z,49.14
2023-03-19T12:28:28.131Z,49.42
2023-03-19T12:31:19.438Z,49.49
2023-03-19T12:33:57.286Z,49.45
2023-03-19T12:36:30.327Z,50.84
2023-03-19T12:39:06.297Z,51.97
2023-03-19T12:41:41.616Z,53.60
2023-03-19T12:44:14.618Z,54.88
2023-03-19T12:46:49.979Z,55.50
2023-03-19T12:49:24.015Z,56.13
2023-03-19T12:52:02.145Z,57.14
2023-03-19T12:54:37.052Z,57.49
2023-03-19T12:57:09.598Z,57.79
2023-03-19T12:59:42.752Z,58.60
2023-03-19T13:02:25.845Z,59.32
2023-03-19T13:04:58.434Z,59.55
2023-03-19T13:07:35.572Z,59.83
2023-03-19T13:10:10.392Z,60.17
2023-03-19T13:12:39.910Z,60.82
2023-03-19T13:15:15.339Z,61.81
2023-03-19T13:17:58.284Z,62.94
2023-03-19T13:20:42.155Z,63.97
2023-03-19T13:23:21.928Z,64.63
2023-03-19T13:25:52.796Z,65.47
2023-03-19T13:28:29.503Z,65.92
2023-03-19T13:31:03.752Z,66.13
2023-03-19T13:33:38.595Z,66.68
2023-03-19T13:36:08.965Z,66.72
2023-03-19T13:38:42.648Z,67.32
2023-03-19T13:42:01.270Z,67.82
2023-03-19T13:44:42.810Z,68.47
2023-03-19T13:47:42.416Z,69.39
2023-03-19T13:50:51.978Z,70.12
2023-03-19T13:53:42.328Z,71.28
2023-03-19T13:56:28.582Z,72.68
2023-03-19T13:59:34.544Z,73.74
2023-03-19T14:02:05.159Z,75.86
2023-03-19T14:04:36.486Z,77.31
2023-03-19T14:07:18.985Z,78.72
2023-03-19T14:09:50.636Z,79.97
2023-03-19T14:12:32.791Z,81.25
2023-03-19T14:15:05.097Z,82.52
2023-03-19T14:17:37.559Z,83.30
2023-03-19T14:20:37.378Z,84.40
2023-03-19T14:23:36.132Z,85.92
2023-03-19T14:26:17.018Z,86.65
2023-03-19T14:28:58.254Z,87.41
2023-03-19T14:31:43.523Z,88.42
2023-03-19T14:34:25.737Z,89.29
2023-03-19T14:37:01.973Z,90.03
2023-03-19T14:39:41.126Z,90.71
2023-03-19T14:42:19.698Z,91.43
2023-03-19T14:45:40.313Z,92.27
2023-03-19T14:48:47.570Z,93.19
2023-03-19T14:51:37.704Z,94.12
2023-03-19T14:54:16.332Z,94.61
2023-03-19T14:56:49.094Z,95.32
2023-03-19T14:59:18.496Z,95.63
2023-03-19T15:01:52.818Z,95.92
2023-03-19T15:04:25.491Z,96.16
2023-03-19T15:06:57.002Z,96.56
2023-03-19T15:09:31.062Z,96.48
2023-03-19T15:12:37.507Z,96.62
2023-03-19T15:15:40.055Z,95.97
2023-03-19T15:18:12.409Z,95.41
2023-03-19T15:20:45.649Z,95.69
2023-03-19T15:23:26.915Z,95.42
2023-03-19T15:25:58.297Z,95.00
2023-03-19T15:28:29.957Z,94.97
2023-03-19T15:31:13.342Z,94.73
2023-03-19T15:33:49.508Z,94.00
2023-03-19T15:36:25.263Z,94.22
2023-03-19T15:38:58.412Z,94.12
2023-03-19T15:41:29.100Z,93.53
2023-03-19T15:43:59.594Z,92.91
2023-03-19T15:46:33.472Z,93.17
2023-03-19T15:49:07.372Z,93.48
2023-03-19T15:51:36.590Z,93.88
2023-03-19T15:54:06.233Z,93.48
2023-03-19T15:56:35.446Z,93.37
2023-03-19T15:59:05.474Z,93.13
2023-03-19T16:01:36.011Z,92.72
2023-03-19T16:04:09.023Z,92.66
2023-03-19T16:06:39.912Z,92.10
2023-03-19T16:09:23.153Z,92.14
2023-03-19T16:11:52.021Z,91.99
2023-03-19T16:14:27.628Z,92.14
2023-03-19T16:17:03.077Z,92.26
2023-03-19T16:19:37.562Z,91.78
2023-03-19T16:22:15.576Z,91.72
2023-03-19T16:24:48.222Z,91.42
2023-03-19T16:27:18.779Z,91.11
2023-03-19T16:29:50.343Z,91.49
2023-03-19T16:32:25.360Z,91.97
2023-03-19T16:34:55.941Z,92.18
2023-03-19T16:37:41.336Z,92.27
2023-03-19T16:40:47.898Z,92.78
2023-03-19T16:43:19.635Z,92.72
2023-03-19T16:46:04.188Z,92.80
2023-03-19T16:48:32.982Z,93.09
2023-03-19T16:51:01.654Z,93.35
2023-03-19T16:53:32.684Z,93.47
2023-03-19T16:56:03.399Z,93.99
2023-03-19T16:58:36.271Z,94.32
2023-03-19T17:01:13.382Z,94.62
2023-03-19T17:03:41.934Z,95.02
2023-03-19T17:06:12.198Z,95.35
2023-03-19T17:08:40.970Z,95.50
2023-03-19T17:11:17.558Z,95.81
2023-03-19T17:13:45.871Z,95.97
2023-03-19T17:16:15.625Z,96.19
2023-03-19T17:18:47.673Z,96.34
2023-03-19T17:21:22.298Z,96.47
2023-03-19T17:23:50.894Z,96.72
2023-03-19T17:26:22.733Z,96.93
2023-03-19T17:28:51.381Z,96.92
2023-03-19T17:31:27.188Z,97.07
2023-03-19T17:34:02.094Z,97.12
2023-03-19T17:36:30.292Z,97.48
2023-03-19T17:38:58.879Z,97.40
2023-03-19T17:41:27.488Z,97.51
2023-03-19T17:43:55.983Z,97.59
2023-03-19T17:46:28.155Z,97.64
2023-03-19T17:48:57.010Z,97.88
2023-03-19T17:51:26.002Z,97.72
2023-03-19T17:53:56.285Z,97.76
2023-03-19T17:56:26.542Z,97.57
2023-03-19T17:58:55.509Z,97.44
2023-03-19T18:01:28.309Z,97.35
2023-03-19T18:03:59.236Z,97.22
2023-03-19T18:06:33.966Z,97.26
2023-03-19T18:09:03.046Z,97.44
2023-03-19T18:11:31.554Z,97.63
2023-03-19T18:13:59.822Z,97.42
2023-03-19T18:16:32.725Z,97.87
2023-03-19T18:19:04.244Z,98.15
2023-03-19T18:21:33.158Z,98.32
2023-03-19T18:24:01.693Z,98.26
2023-03-19T18:26:30.285Z,98.34
2023-03-19T18:28:58.784Z,98.27
2023-03-19T18:31:30.278Z,98.25
2023-03-19T18:34:03.800Z,98.45
2023-03-19T18:36:33.762Z,98.73
2023-03-19T18:39:02.444Z,98.66
2023-03-19T18:41:30.873Z,98.76
2023-03-19T18:44:04.898Z,98.76
2023-03-19T18:46:35.620Z,98.90
2023-03-19T18:49:07.304Z,98.99
2023-03-19T18:51:35.951Z,99.03
2023-03-19T18:54:04.861Z,99.10
2023-03-19T18:56:34.520Z,99.11
2023-03-19T18:59:09.781Z,99.23
2023-03-19T19:01:39.467Z,99.48
2023-03-19T19:04:08.095Z,99.71
2023-03-19T19:06:47.189Z,99.91
2023-03-19T19:09:16.197Z,99.74
2023-03-19T19:11:47.635Z,100.00
2023-03-19T19:14:21.771Z,100.00
2023-03-19T19:16:52.277Z,100.00
2023-03-19T19:19:24.047Z,99.98
2023-03-19T19:21:53.077Z,100.00
2023-03-19T19:24:21.602Z,100.00
2023-03-19T19:26:53.970Z,100.00
2023-03-19T19:29:26.295Z,100.00
2023-03-19T19:31:56.432Z,100.00
2023-03-19T19:34:25.162Z,100.00
2023-03-19T19:36:57.451Z,100.00
2023-03-19T19:39:26.948Z,100.00
2023-03-19T19:41:56.693Z,100.00
2023-03-19T19:44:25.035Z,100.00
2023-03-19T19:46:55.927Z,100.00
2023-03-19T19:49:25.473Z,100.00
2023-03-19T19:51:54.022Z,100.00
2023-03-19T19:54:24.861Z,100.00
2023-03-19T19:56:53.170Z,100.00
2023-03-19T19:59:26.035Z,100.00
2023-03-19T20:01:56.279Z,100.00
2023-03-19T20:04:24.842Z,100.00
2023-03-19T20:06:53.921Z,100.00
2023-03-19T20:09:22.415Z,100.00
2023-03-19T20:11:51.082Z,100.00
2023-03-19T20:14:19.658Z,100.00
2023-03-19T20:16:48.745Z,100.00
2023-03-19T20:19:20.286Z,100.00
2023-03-19T20:21:48.900Z,100.00
2023-03-19T20:24:17.102Z,100.00
2023-03-19T20:26:45.598Z,100.00
2023-03-19T20:29:16.560Z,100.00
2023-03-19T20:31:46.832Z,100.00
2023-03-19T20:34:28.743Z,100.00
2023-03-19T20:37:02.201Z,100.00
2023-03-19T20:39:30.799Z,100.00
2023-03-19T20:41:59.621Z,100.00
2023-03-19T20:44:29.026Z,100.00
2023-03-19T20:46:58.930Z,100.00
2023-03-19T20:49:29.032Z,100.00
2023-03-19T20:51:57.526Z,100.00
2023-03-19T20:54:27.738Z,100.00
2023-03-19T20:56:56.351Z,100.00
2023-03-19T20:59:27.119Z,100.00
2023-03-19T21:01:56.371Z,100.00
2023-03-19T21:04:24.906Z,100.00
2023-03-19T21:06:54.369Z,100.00
2023-03-19T21:09:24.128Z,100.00
2023-03-19T21:11:53.905Z,100.00
2023-03-19T21:14:26.673Z,100.00
2023-03-19T21:16:55.398Z,100.00
2023-03-19T21:19:26.611Z,100.00
2023-03-19T21:21:55.610Z,100.00
2023-03-19T21:24:25.468Z,100.00
2023-03-19T21:26:56.827Z,100.00
2023-03-19T21:29:33.420Z,100.00
2023-03-19T21:32:02.021Z,100.00
2023-03-19T21:34:30.516Z,100.00
2023-03-19T21:36:59.051Z,100.00
2023-03-19T21:39:27.593Z,100.00
2023-03-19T21:41:57.211Z,100.00
2023-03-19T21:44:29.627Z,100.00
2023-03-19T21:46:58.020Z,100.00
2023-03-19T21:49:26.915Z,100.00
2023-03-19T21:51:57.069Z,100.00
2023-03-19T21:54:25.754Z,100.00
2023-03-19T21:56:54.330Z,100.00
2023-03-19T21:59:31.688Z,100.00
2023-03-19T22:01:59.907Z,100.00
2023-03-19T22:04:28.465Z,100.00
2023-03-19T22:06:57.379Z,100.00
2023-03-19T22:09:26.134Z,100.00
2023-03-19T22:11:54.725Z,100.00
2023-03-19T22:14:27.919Z,100.00
2023-03-19T22:16:57.524Z,100.00
2023-03-19T22:19:26.120Z,100.00
2023-03-19T22:21:55.156Z,100.00
2023-03-19T22:24:23.658Z,100.00
2023-03-19T22:26:58.688Z,100.00
2023-03-19T22:29:28.604Z,100.00
2023-03-19T22:31:57.722Z,100.00
2023-03-19T22:34:28.646Z,100.00
2023-03-19T22:36:57.122Z,100.00
2023-03-19T22:39:25.660Z,100.00
2023-03-19T22:41:54.190Z,100.00
2023-03-19T22:44:29.680Z,100.00
2023-03-19T22:46:59.975Z,100.00
2023-03-19T22:49:29.703Z,100.00
2023-03-19T22:51:58.686Z,100.00
2023-03-19T22:54:28.408Z,100.00
2023-03-19T22:56:56.964Z,100.00
2023-03-19T22:59:25.461Z,100.00
2023-03-19T23:01:55.354Z,100.00
2023-03-19T23:04:25.322Z,100.00
2023-03-19T23:06:55.920Z,100.00
2023-03-19T23:09:26.982Z,100.00
2023-03-19T23:11:56.226Z,100.00
2023-03-19T23:14:31.866Z,100.00
2023-03-19T23:17:06.841Z,100.00
2023-03-19T23:19:38.284Z,100.00
2023-03-19T23:22:14.853Z,100.00
2023-03-19T23:24:44.553Z,100.00
2023-03-19T23:27:25.121Z,100.00
2023-03-19T23:29:54.150Z,100.00
2023-03-19T23:32:23.865Z,100.00
2023-03-19T23:35:01.638Z,100.00
2023-03-19T23:37:30.735Z,100.00
2023-03-19T23:39:59.266Z,100.00
2023-03-19T23:42:31.371Z,100.00
2023-03-19T23:45:03.534Z,100.00
2023-03-19T23:47:33.851Z,100.00
2023-03-19T23:50:02.501Z,100.00
2023-03-19T23:52:31.005Z,100.00
2023-03-19T23:54:59.523Z,100.00
2023-03-19T23:57:28.143Z,100.00
2023-03-19T23:59:56.964Z,100.00
